createdAt,value
2018-12-01T00:00:25.476Z,5.80
2018-12-01T00:02:53.974Z,5.80
2018-12-01T00:07:56.349Z,5.80
2018-12-01T00:10:24.849Z,5.80
2018-12-01T00:12:53.497Z,5.80
2018-12-01T00:15:29.803Z,5.80
2018-12-01T00:17:58.377Z,5.80
2018-12-01T00:20:28.291Z,5.80
2018-12-01T00:22:57.455Z,5.90
2018-12-01T00:25:26.086Z,5.80
2018-12-01T00:27:54.708Z,5.80
2018-12-01T00:30:23.936Z,5.90
2018-12-01T00:32:53.193Z,5.90
2018-12-01T00:35:21.705Z,5.90
2018-12-01T00:37:50.220Z,5.90
2018-12-01T00:40:19.782Z,5.90
2018-12-01T00:42:48.380Z,5.90
2018-12-01T00:45:17.918Z,5.90
2018-12-01T00:47:47.564Z,5.90
2018-12-01T00:50:19.150Z,5.90
2018-12-01T00:52:48.430Z,5.90
2018-12-01T00:55:17.747Z,5.90
2018-12-01T00:57:46.315Z,5.90
2018-12-01T01:00:24.204Z,6.00
2018-12-01T01:02:58.282Z,6.00
2018-12-01T01:05:27.673Z,5.90
2018-12-01T01:07:56.939Z,5.90
2018-12-01T01:10:26.701Z,5.90
2018-12-01T01:12:55.247Z,5.90
2018-12-01T01:15:23.758Z,5.90
2018-12-01T01:17:52.348Z,5.90
2018-12-01T01:20:22.002Z,5.90
2018-12-01T01:22:50.931Z,5.90
2018-12-01T01:25:19.494Z,5.90
2018-12-01T01:27:47.975Z,5.90
2018-12-01T01:30:19.274Z,5.90
2018-12-01T01:32:47.957Z,5.90
2018-12-01T01:35:16.543Z,5.90
2018-12-01T01:37:45.113Z,5.90
2018-12-01T01:40:15.670Z,5.90
2018-12-01T01:42:44.233Z,5.90
2018-12-01T01:45:14.750Z,5.90
2018-12-01T01:47:43.287Z,5.90
2018-12-01T01:50:12.990Z,5.90
2018-12-01T01:52:41.572Z,5.90
2018-12-01T01:55:11.077Z,5.90
2018-12-01T01:57:39.760Z,5.90
2018-12-01T02:00:11.112Z,5.90
2018-12-01T02:02:39.610Z,5.90
2018-12-01T02:05:08.213Z,5.90
2018-12-01T02:07:36.738Z,5.90
2018-12-01T02:10:05.705Z,5.90
2018-12-01T02:12:34.200Z,5.80
2018-12-01T02:15:02.770Z,5.80
2018-12-01T02:17:31.271Z,5.80
2018-12-01T02:19:59.863Z,5.80
2018-12-01T02:22:28.406Z,5.80
2018-12-01T02:24:56.901Z,5.80
2018-12-01T02:27:25.389Z,5.80
2018-12-01T02:29:53.912Z,5.80
2018-12-01T02:32:22.434Z,5.80
2018-12-01T02:34:50.958Z,5.80
2018-12-01T02:37:19.498Z,5.80
2018-12-01T02:39:48.030Z,5.70
2018-12-01T02:42:16.509Z,5.80
2018-12-01T02:45:05.455Z,5.80
2018-12-01T02:47:34.445Z,5.70
2018-12-01T02:50:03.448Z,5.70
2018-12-01T02:52:31.994Z,5.70
2018-12-01T02:55:00.478Z,5.80
2018-12-01T02:57:28.996Z,5.70
2018-12-01T02:59:57.553Z,5.70
2018-12-01T03:02:26.054Z,5.70
2018-12-01T03:04:54.533Z,5.60
2018-12-01T03:07:23.064Z,5.60
2018-12-01T03:09:51.557Z,5.60
2018-12-01T03:12:20.088Z,5.70
2018-12-01T03:14:48.602Z,5.70
2018-12-01T03:17:17.096Z,5.70
2018-12-01T03:19:45.586Z,5.70
2018-12-01T03:22:14.170Z,5.60
2018-12-01T03:24:42.668Z,5.70
2018-12-01T03:27:11.161Z,5.60
2018-12-01T03:29:39.658Z,5.60
2018-12-01T03:32:08.145Z,5.60
2018-12-01T03:34:36.666Z,5.60
2018-12-01T03:37:05.349Z,5.60
2018-12-01T03:39:33.835Z,5.50
2018-12-01T03:42:02.350Z,5.50
2018-12-01T03:44:30.872Z,5.50
2018-12-01T03:46:59.355Z,5.50
2018-12-01T03:49:27.844Z,5.60
2018-12-01T03:51:56.347Z,5.60
2018-12-01T03:54:24.858Z,5.60
2018-12-01T03:56:53.373Z,5.60
2018-12-01T03:59:21.944Z,5.60
2018-12-01T04:01:50.439Z,5.60
2018-12-01T04:04:18.935Z,5.60
2018-12-01T04:06:47.436Z,5.60
2018-12-01T04:09:23.239Z,5.60
2018-12-01T04:11:52.098Z,5.60
2018-12-01T04:14:20.669Z,5.60
2018-12-01T04:16:49.173Z,5.60
2018-12-01T04:19:17.703Z,5.60
2018-12-01T04:21:46.190Z,5.60
2018-12-01T04:24:14.783Z,5.60
2018-12-01T04:26:43.275Z,5.60
2018-12-01T04:29:11.767Z,5.60
2018-12-01T04:31:40.251Z,5.60
2018-12-01T04:34:08.824Z,5.50
2018-12-01T04:36:37.314Z,5.50
2018-12-01T04:39:07.541Z,5.50
2018-12-01T04:41:36.187Z,5.50
2018-12-01T04:44:04.721Z,5.50
2018-12-01T04:46:33.213Z,5.40
2018-12-01T04:49:01.825Z,5.40
2018-12-01T04:51:30.359Z,5.40
2018-12-01T04:53:58.831Z,5.50
2018-12-01T04:56:27.337Z,5.40
2018-12-01T04:58:55.842Z,5.40
2018-12-01T05:01:24.324Z,5.50
2018-12-01T05:03:53.137Z,5.50
2018-12-01T05:06:21.628Z,5.50
2018-12-01T05:08:50.134Z,5.50
2018-12-01T05:11:18.654Z,5.50
2018-12-01T05:13:47.162Z,5.50
2018-12-01T05:16:15.662Z,5.40
2018-12-01T05:18:44.172Z,5.40
2018-12-01T05:21:12.660Z,5.40
2018-12-01T05:23:41.167Z,5.40
2018-12-01T05:26:09.782Z,5.40
2018-12-01T05:28:38.274Z,5.40
2018-12-01T05:31:06.771Z,5.30
2018-12-01T05:33:36.348Z,5.30
2018-12-01T05:36:04.866Z,5.30
2018-12-01T05:38:33.366Z,5.20
2018-12-01T05:41:01.891Z,5.20
2018-12-01T05:43:30.371Z,5.20
2018-12-01T05:45:58.873Z,5.10
2018-12-01T05:48:27.373Z,5.10
2018-12-01T05:50:55.894Z,5.00
2018-12-01T05:53:24.403Z,4.90
2018-12-01T05:55:53.050Z,4.90
2018-12-01T05:58:21.530Z,4.90
2018-12-01T06:00:50.009Z,4.80
2018-12-01T06:03:18.518Z,4.80
2018-12-01T06:05:47.057Z,4.80
2018-12-01T06:08:15.545Z,4.80
2018-12-01T06:10:44.065Z,4.70
2018-12-01T06:13:12.654Z,4.70
2018-12-01T06:15:41.133Z,4.70
2018-12-01T06:18:09.651Z,4.70
2018-12-01T06:20:38.162Z,4.70
2018-12-01T06:23:06.675Z,4.70
2018-12-01T06:25:35.190Z,4.70
2018-12-01T06:28:03.948Z,4.70
2018-12-01T06:30:32.442Z,4.70
2018-12-01T06:33:00.969Z,4.80
2018-12-01T06:35:29.529Z,4.70
2018-12-01T06:37:58.025Z,4.80
2018-12-01T06:40:26.616Z,4.80
2018-12-01T06:42:55.150Z,4.80
2018-12-01T06:45:23.655Z,4.80
2018-12-01T06:47:52.150Z,4.80
2018-12-01T06:50:21.902Z,4.80
2018-12-01T06:52:51.451Z,4.80
2018-12-01T06:55:20.009Z,4.90
2018-12-01T06:57:48.686Z,4.90
2018-12-01T07:00:18.292Z,5.00
2018-12-01T07:02:53.994Z,5.00
2018-12-01T07:05:22.515Z,5.00
2018-12-01T07:07:51.021Z,5.00
2018-12-01T07:10:20.685Z,5.10
2018-12-01T07:12:53.415Z,5.10
2018-12-01T07:15:37.971Z,5.10
2018-12-01T07:18:17.717Z,5.20
2018-12-01T07:20:46.251Z,5.20
2018-12-01T07:23:14.740Z,5.20
2018-12-01T07:25:43.235Z,5.20
2018-12-01T07:28:11.863Z,5.30
2018-12-01T07:30:40.389Z,5.40
2018-12-01T07:33:08.858Z,5.50
2018-12-01T07:35:37.387Z,5.50
2018-12-01T07:38:06.045Z,5.50
2018-12-01T07:40:34.529Z,5.50
2018-12-01T07:43:03.034Z,5.50
2018-12-01T07:45:31.581Z,5.50
2018-12-01T07:48:00.062Z,5.50
2018-12-01T07:50:28.598Z,5.60
2018-12-01T07:52:57.090Z,5.60
2018-12-01T07:55:25.588Z,5.70
2018-12-01T07:57:54.100Z,5.70
2018-12-01T08:00:22.601Z,5.80
2018-12-01T08:02:51.297Z,5.80
2018-12-01T08:05:19.899Z,5.80
2018-12-01T08:07:48.440Z,5.90
2018-12-01T08:10:17.182Z,5.90
2018-12-01T08:12:45.709Z,6.00
2018-12-01T08:15:16.299Z,6.00
2018-12-01T08:17:45.342Z,6.10
2018-12-01T08:20:14.732Z,6.20
2018-12-01T08:22:43.233Z,6.30
2018-12-01T08:25:20.337Z,6.30
2018-12-01T08:27:51.849Z,6.40
2018-12-01T08:30:23.652Z,6.50
2018-12-01T08:32:52.187Z,6.50
2018-12-01T08:35:20.865Z,6.50
2018-12-01T08:37:49.431Z,6.50
2018-12-01T08:40:19.206Z,6.50
2018-12-01T08:42:47.710Z,6.60
2018-12-01T08:45:16.279Z,6.60
2018-12-01T08:47:44.782Z,6.60
2018-12-01T08:50:16.566Z,6.60
2018-12-01T08:52:45.146Z,6.60
2018-12-01T08:55:15.618Z,6.70
2018-12-01T08:57:44.160Z,6.70
2018-12-01T09:00:15.042Z,6.70
2018-12-01T09:02:43.906Z,6.80
2018-12-01T09:05:18.438Z,6.80
2018-12-01T09:10:40.318Z,6.90
2018-12-01T09:13:08.593Z,6.80
2018-12-01T09:15:37.094Z,6.80
2018-12-01T09:18:05.352Z,6.80
2018-12-01T09:20:33.608Z,6.70
2018-12-01T09:23:01.856Z,6.60
2018-12-01T09:25:30.141Z,6.60
2018-12-01T09:46:07.342Z,6.40
2018-12-01T09:48:35.608Z,6.40
2018-12-01T09:51:18.605Z,6.40
2018-12-01T09:53:52.676Z,6.50
2018-12-01T09:56:20.940Z,6.50
2018-12-01T09:58:49.218Z,6.70
2018-12-01T10:01:17.507Z,6.80
2018-12-01T10:03:45.768Z,6.90
2018-12-01T10:06:14.040Z,6.90
2018-12-01T10:08:42.304Z,7.00
2018-12-01T10:11:10.592Z,7.00
2018-12-01T10:13:38.880Z,7.10
2018-12-01T10:16:07.144Z,7.10
2018-12-01T10:18:35.440Z,7.20
2018-12-01T10:21:03.717Z,7.30
2018-12-01T10:23:31.984Z,7.40
2018-12-01T10:26:00.320Z,7.40
2018-12-01T10:28:28.544Z,7.40
2018-12-01T10:30:56.813Z,7.50
2018-12-01T10:33:25.090Z,7.60
2018-12-01T10:35:53.336Z,7.60
2018-12-01T10:38:21.606Z,7.70
2018-12-01T10:40:49.904Z,7.80
2018-12-01T10:43:18.181Z,7.90
2018-12-01T10:45:46.489Z,7.90
2018-12-01T10:48:14.837Z,8.00
2018-12-01T10:50:43.092Z,8.00
2018-12-01T10:53:11.353Z,8.00
2018-12-01T10:55:39.665Z,8.00
2018-12-01T10:58:15.180Z,8.00
2018-12-01T11:00:49.857Z,8.00
2018-12-01T11:03:23.564Z,8.00
2018-12-01T11:05:52.540Z,8.00
2018-12-01T11:08:20.878Z,8.00
2018-12-01T11:10:49.187Z,8.10
2018-12-01T11:13:17.516Z,8.20
2018-12-01T11:15:45.776Z,8.30
2018-12-01T11:18:14.060Z,8.40
2018-12-01T11:20:42.336Z,8.50
2018-12-01T11:23:10.625Z,8.50
2018-12-01T11:25:39.468Z,8.60
2018-12-01T11:28:07.808Z,8.70
2018-12-01T11:30:37.916Z,8.80
2018-12-01T11:33:06.234Z,8.90
2018-12-01T11:35:34.561Z,9.00
2018-12-01T11:38:02.866Z,9.10
2018-12-01T11:40:31.147Z,9.20
2018-12-01T11:42:59.424Z,9.30
2018-12-01T11:45:27.700Z,9.30
2018-12-01T11:47:55.958Z,9.20
2018-12-01T11:50:24.272Z,9.10
2018-12-01T11:52:52.552Z,9.10
2018-12-01T11:55:21.899Z,9.10
2018-12-01T11:57:50.553Z,9.10
2018-12-01T12:00:19.846Z,9.00
2018-12-01T12:02:48.108Z,9.00
2018-12-01T12:05:16.901Z,9.00
2018-12-01T12:08:27.864Z,9.00
2018-12-01T12:10:56.259Z,9.10
2018-12-01T12:13:25.904Z,9.20
2018-12-01T12:15:54.196Z,9.30
2018-12-01T12:18:22.680Z,9.40
2018-12-01T12:20:50.964Z,9.50
2018-12-01T12:23:19.240Z,9.60
2018-12-01T12:25:47.520Z,9.70
2018-12-01T12:28:15.826Z,9.70
2018-12-01T12:30:44.112Z,9.80
2018-12-01T12:33:12.419Z,9.90
2018-12-01T12:35:40.713Z,10.00
2018-12-01T12:38:08.992Z,10.10
2018-12-01T12:40:37.272Z,10.20
2018-12-01T12:43:05.928Z,10.20
2018-12-01T12:45:34.192Z,10.30
2018-12-01T12:48:02.484Z,10.30
2018-12-01T12:50:30.764Z,10.30
2018-12-01T12:52:59.061Z,10.30
2018-12-01T12:55:27.744Z,10.30
2018-12-01T12:57:56.008Z,10.30
2018-12-01T13:00:25.058Z,10.30
2018-12-01T13:02:56.460Z,10.30
2018-12-01T13:05:26.176Z,10.20
2018-12-01T13:07:54.526Z,10.10
2018-12-01T13:10:23.764Z,10.30
2018-12-01T13:12:52.023Z,10.50
2018-12-01T13:15:20.351Z,10.80
2018-12-01T13:17:48.640Z,11.10
2018-12-01T13:20:17.916Z,11.20
2018-12-01T13:22:47.264Z,11.20
2018-12-01T13:25:16.016Z,11.20
2018-12-01T13:33:36.520Z,10.80
2018-12-01T13:36:05.208Z,10.40
2018-12-01T13:38:33.549Z,10.10
2018-12-01T13:41:01.840Z,9.80
2018-12-01T13:43:30.128Z,9.60
2018-12-01T13:45:58.396Z,9.40
2018-12-01T13:48:26.709Z,9.20
2018-12-01T13:50:54.963Z,9.20
2018-12-01T13:53:23.236Z,9.10
2018-12-01T13:55:51.524Z,9.00
2018-12-01T13:58:19.784Z,9.00
2018-12-01T14:00:48.040Z,8.90
2018-12-01T14:03:16.320Z,9.00
2018-12-01T14:05:44.636Z,8.90
2018-12-01T14:08:12.908Z,8.90
2018-12-01T14:10:43.116Z,8.80
2018-12-01T14:13:12.804Z,8.80
2018-12-01T14:15:41.130Z,8.70
2018-12-01T14:18:09.416Z,8.60
2018-12-01T14:20:37.693Z,8.60
2018-12-01T14:23:05.993Z,8.50
2018-12-01T14:25:34.328Z,8.30
2018-12-01T14:28:04.033Z,8.30
2018-12-01T14:30:32.278Z,8.10
2018-12-01T14:33:00.614Z,8.00
2018-12-01T14:35:31.216Z,8.00
2018-12-01T14:38:16.894Z,8.00
2018-12-01T14:40:46.308Z,8.00
2018-12-01T14:43:14.589Z,7.90
2018-12-01T14:45:43.920Z,7.90
2018-12-01T14:48:12.183Z,7.90
2018-12-01T14:50:40.428Z,7.80
2018-12-01T14:53:10.306Z,7.80
2018-12-01T14:55:38.581Z,7.80
2018-12-01T14:58:07.468Z,7.80
2018-12-01T15:00:36.343Z,7.70
2018-12-01T15:03:05.252Z,7.70
2018-12-01T15:05:33.596Z,7.70
2018-12-01T15:08:01.870Z,7.60
2018-12-01T15:10:30.137Z,7.50
2018-12-01T15:12:58.404Z,7.40
2018-12-01T15:15:27.487Z,7.30
2018-12-01T15:17:55.776Z,7.30
2018-12-01T15:20:25.017Z,7.10
2018-12-01T15:22:54.360Z,7.10
2018-12-01T15:25:25.564Z,7.00
2018-12-01T15:27:53.904Z,6.90
2018-12-01T15:30:23.225Z,6.90
2018-12-01T15:33:00.712Z,6.80
2018-12-01T15:35:29.097Z,6.70
2018-12-01T15:37:57.411Z,6.70
2018-12-01T15:40:25.693Z,6.60
2018-12-01T15:42:53.992Z,6.60
2018-12-01T15:45:22.706Z,6.40
2018-12-01T15:47:50.979Z,6.40
2018-12-01T15:50:20.292Z,6.30
2018-12-01T15:52:52.313Z,6.30
2018-12-01T15:55:21.228Z,6.20
2018-12-01T15:57:49.528Z,6.20
2018-12-01T16:00:22.532Z,6.10
2018-12-01T16:02:50.861Z,6.10
2018-12-01T16:05:21.135Z,6.10
2018-12-01T16:07:50.829Z,6.10
2018-12-01T16:10:20.336Z,6.00
2018-12-01T16:12:50.969Z,6.10
2018-12-01T16:15:27.847Z,6.10
2018-12-01T16:17:56.157Z,6.10
2018-12-01T16:20:24.440Z,6.10
2018-12-01T16:22:52.724Z,6.00
2018-12-01T16:25:22.740Z,6.00
2018-12-01T16:27:51.068Z,6.00
2018-12-01T16:30:26.686Z,5.90
2018-12-01T16:32:56.251Z,5.90
2018-12-01T16:35:24.548Z,6.00
2018-12-01T16:37:52.892Z,6.00
2018-12-01T16:40:27.012Z,6.00
2018-12-01T16:42:56.416Z,5.90
2018-12-01T16:45:24.700Z,5.90
2018-12-01T16:47:52.972Z,5.80
2018-12-01T16:50:21.276Z,5.80
2018-12-01T16:52:49.516Z,5.70
2018-12-01T16:55:18.059Z,5.70
2018-12-01T16:57:46.320Z,5.60
2018-12-01T17:00:17.511Z,5.60
2018-12-01T17:02:47.182Z,5.50
2018-12-01T17:05:16.597Z,5.40
2018-12-01T17:07:44.874Z,5.50
2018-12-01T17:10:15.385Z,5.40
2018-12-01T17:12:44.196Z,5.30
2018-12-01T17:15:15.660Z,5.20
2018-12-01T17:17:43.956Z,5.20
2018-12-01T17:20:13.810Z,5.20
2018-12-01T17:22:45.128Z,5.20
2018-12-01T17:25:14.485Z,5.10
2018-12-01T17:27:42.800Z,5.10
2018-12-01T17:30:13.409Z,5.10
2018-12-01T17:32:41.696Z,5.00
2018-12-01T17:35:11.586Z,5.00
2018-12-01T17:37:39.936Z,5.00
2018-12-01T17:40:11.296Z,5.00
2018-12-01T17:42:39.674Z,5.00
2018-12-01T17:45:09.856Z,5.00
2018-12-01T17:47:38.191Z,5.00
2018-12-01T17:50:12.952Z,4.90
2018-12-01T17:52:42.660Z,4.80
2018-12-01T17:55:13.112Z,4.80
2018-12-01T17:57:41.460Z,4.80
2018-12-01T18:00:11.809Z,4.80
2018-12-01T18:02:40.105Z,4.80
2018-12-01T18:05:11.272Z,4.80
2018-12-01T18:07:39.598Z,4.80
2018-12-01T18:10:11.265Z,4.80
2018-12-01T18:12:39.628Z,4.80
2018-12-01T18:15:11.262Z,4.70
2018-12-01T18:17:39.552Z,4.70
2018-12-01T18:20:14.942Z,4.60
2018-12-01T18:22:43.449Z,4.70
2018-12-01T18:25:11.721Z,4.60
2018-12-01T18:27:39.993Z,4.60
2018-12-01T18:30:14.621Z,4.60
2018-12-01T18:32:43.286Z,4.70
2018-12-01T18:35:11.504Z,4.70
2018-12-01T18:37:39.764Z,4.70
2018-12-01T18:40:15.652Z,4.70
2018-12-01T18:42:44.006Z,4.70
2018-12-01T18:45:13.752Z,4.60
2018-12-01T18:47:42.012Z,4.60
2018-12-01T18:50:22.606Z,4.50
2018-12-01T18:52:59.704Z,4.40
2018-12-01T18:55:30.379Z,4.30
2018-12-01T18:57:58.660Z,4.30
2018-12-01T19:00:39.053Z,4.30
2018-12-01T19:03:07.320Z,4.30
2018-12-01T19:05:35.616Z,4.30
2018-12-01T19:08:03.912Z,4.20
2018-12-01T19:10:32.169Z,4.30
2018-12-01T19:13:00.427Z,4.30
2018-12-01T19:15:28.697Z,4.20
2018-12-01T19:17:57.044Z,4.20
2018-12-01T19:20:25.300Z,4.20
2018-12-01T19:22:53.604Z,4.20
2018-12-01T19:25:22.738Z,4.20
2018-12-01T19:27:52.141Z,4.30
2018-12-01T19:30:21.233Z,4.30
2018-12-01T19:32:55.992Z,4.30
2018-12-01T19:35:25.450Z,4.30
2018-12-01T19:37:59.246Z,4.30
2018-12-01T19:40:29.958Z,4.30
2018-12-01T19:42:58.882Z,4.30
2018-12-01T19:45:27.168Z,4.40
2018-12-01T19:47:55.458Z,4.30
2018-12-01T19:50:43.497Z,4.40
2018-12-01T19:53:15.916Z,4.50
2018-12-01T19:55:45.620Z,4.60
2018-12-01T19:58:15.550Z,4.60
2018-12-01T20:00:45.875Z,4.60
2018-12-01T20:03:15.878Z,4.60
2018-12-01T20:05:44.252Z,4.50
2018-12-01T20:08:13.390Z,4.50
2018-12-01T20:10:45.247Z,4.50
2018-12-01T20:13:19.152Z,4.50
2018-12-01T20:15:49.162Z,4.50
2018-12-01T20:18:19.098Z,4.50
2018-12-01T20:20:47.377Z,4.50
2018-12-01T20:23:15.660Z,4.50
2018-12-01T20:25:44.964Z,4.60
2018-12-01T20:28:13.276Z,4.60
2018-12-01T20:30:41.529Z,4.70
2018-12-01T20:33:09.809Z,4.70
2018-12-01T20:35:40.789Z,4.70
2018-12-01T20:38:15.162Z,4.70
2018-12-01T20:40:43.456Z,4.70
2018-12-01T20:43:11.716Z,4.60
2018-12-01T20:45:40.012Z,4.50
2018-12-01T20:48:08.298Z,4.50
2018-12-01T20:50:49.522Z,4.50
2018-12-01T20:53:26.921Z,4.50
2018-12-01T20:56:07.884Z,4.60
2018-12-01T20:58:36.435Z,4.60
2018-12-01T21:01:04.738Z,4.60
2018-12-01T21:03:32.991Z,4.60
2018-12-01T21:06:01.276Z,4.60
2018-12-01T21:08:29.556Z,4.50
2018-12-01T21:11:03.652Z,4.50
2018-12-01T21:13:31.916Z,4.50
2018-12-01T21:16:00.184Z,4.50
2018-12-01T21:18:28.460Z,4.50
2018-12-01T21:20:56.744Z,4.50
2018-12-01T21:23:25.008Z,4.50
2018-12-01T21:25:54.172Z,4.50
2018-12-01T21:28:25.135Z,4.60
2018-12-01T21:30:53.572Z,4.60
2018-12-01T21:33:23.779Z,4.60
2018-12-01T21:35:52.041Z,4.60
2018-12-01T21:38:20.321Z,4.60
2018-12-01T21:40:48.636Z,4.50
2018-12-01T21:43:16.920Z,4.50
2018-12-01T21:45:45.172Z,4.40
2018-12-01T21:48:14.200Z,4.50
2018-12-01T21:50:43.373Z,4.50
2018-12-01T21:53:20.276Z,4.60
2018-12-01T21:55:48.548Z,4.60
2018-12-01T21:58:16.820Z,4.60
2018-12-01T22:00:49.749Z,4.50
2018-12-01T22:03:18.542Z,4.60
2018-12-01T22:05:50.861Z,4.50
2018-12-01T22:08:19.132Z,4.50
2018-12-01T22:10:50.124Z,4.50
2018-12-01T22:13:18.440Z,4.50
2018-12-01T22:15:46.721Z,4.50
2018-12-01T22:18:14.998Z,4.50
2018-12-01T22:20:43.297Z,4.50
2018-12-01T22:23:11.632Z,4.50
2018-12-01T22:25:40.085Z,4.40
2018-12-01T22:28:10.008Z,4.30
2018-12-01T22:30:38.291Z,4.30
2018-12-01T22:33:11.690Z,4.30
2018-12-01T22:35:41.506Z,4.20
2018-12-01T22:38:09.796Z,4.30
2018-12-01T22:40:39.112Z,4.30
2018-12-01T22:43:08.018Z,4.20
2018-12-01T22:45:36.366Z,4.20
2018-12-01T22:48:09.160Z,4.20
2018-12-01T22:50:37.829Z,4.10
2018-12-01T22:53:06.678Z,4.20
2018-12-01T22:55:34.968Z,4.10
2018-12-01T22:58:11.719Z,4.10
2018-12-01T23:00:43.303Z,4.10
2018-12-01T23:03:12.477Z,4.10
2018-12-01T23:08:35.488Z,4.10
2018-12-01T23:11:11.006Z,4.00
2018-12-01T23:13:39.212Z,4.00
2018-12-01T23:22:02.073Z,4.00
2018-12-01T23:24:31.260Z,4.00
2018-12-01T23:26:59.494Z,4.00
2018-12-01T23:29:27.720Z,4.10
2018-12-01T23:31:55.957Z,4.10
2018-12-01T23:34:24.184Z,4.10
2018-12-01T23:36:52.407Z,4.10
2018-12-01T23:39:20.633Z,4.10
2018-12-01T23:41:48.865Z,4.10
2018-12-01T23:44:28.301Z,4.10
2018-12-01T23:46:56.633Z,4.10
2018-12-01T23:49:24.860Z,4.20
2018-12-01T23:51:53.121Z,4.20
2018-12-01T23:54:21.353Z,4.30
2018-12-01T23:56:49.576Z,4.30
2018-12-01T23:59:18.696Z,4.40
